createdAt,value
2018-04-16T00:01:48.520Z,15.00
2018-04-16T00:04:15.569Z,15.10
2018-04-16T00:06:42.580Z,15.30
2018-04-16T00:09:08.832Z,14.90
2018-04-16T00:11:35.210Z,15.00
2018-04-16T00:14:01.466Z,14.90
2018-04-16T00:16:27.757Z,15.00
2018-04-16T00:18:54.776Z,14.90
2018-04-16T00:21:21.070Z,14.90
2018-04-16T00:23:47.343Z,14.80
2018-04-16T00:26:14.395Z,14.50
2018-04-16T00:28:41.435Z,14.50
2018-04-16T00:31:08.494Z,14.40
2018-04-16T00:33:41.594Z,14.40
2018-04-16T00:36:14.797Z,14.30
2018-04-16T00:38:47.208Z,14.40
2018-04-16T00:41:19.529Z,14.50
2018-04-16T00:43:52.591Z,14.40
2018-04-16T00:46:24.883Z,14.50
2018-04-16T00:48:58.066Z,14.40
2018-04-16T00:51:30.309Z,14.50
2018-04-16T00:54:15.003Z,14.50
2018-04-16T00:56:48.042Z,14.30
2018-04-16T00:59:20.287Z,14.50
2018-04-16T01:04:57.482Z,14.40
2018-04-16T01:07:29.752Z,13.90
2018-04-16T01:10:02.757Z,14.40
2018-04-16T01:12:35.174Z,14.30
2018-04-16T01:15:07.510Z,14.30
2018-04-16T01:17:39.710Z,14.00
2018-04-16T01:20:12.110Z,14.10
2018-04-16T01:22:45.140Z,13.90
2018-04-16T01:25:17.470Z,13.80
2018-04-16T01:27:49.733Z,13.80
2018-04-16T01:30:22.030Z,14.10
2018-04-16T01:32:54.279Z,13.90
2018-04-16T01:35:26.563Z,13.90
2018-04-16T01:37:58.941Z,14.00
2018-04-16T01:40:31.273Z,13.90
2018-04-16T01:43:03.553Z,14.00
2018-04-16T01:45:35.862Z,13.80
2018-04-16T01:51:17.374Z,14.00
2018-04-16T01:53:49.634Z,13.90
2018-04-16T01:56:21.990Z,14.00
2018-04-16T01:58:55.346Z,13.90
2018-04-16T02:01:27.590Z,13.80
2018-04-16T02:03:59.813Z,14.00
2018-04-16T02:06:32.274Z,13.70
2018-04-16T02:09:04.530Z,13.90
2018-04-16T02:11:36.940Z,13.80
2018-04-16T02:14:09.209Z,13.80
2018-04-16T02:16:41.445Z,13.60
2018-04-16T02:19:13.713Z,13.90
2018-04-16T02:21:46.861Z,13.80
2018-04-16T02:24:19.809Z,13.80
2018-04-16T02:26:52.118Z,13.70
2018-04-16T02:29:24.486Z,13.60
2018-04-16T02:31:56.907Z,13.90
2018-04-16T02:34:29.222Z,13.50
2018-04-16T02:37:02.486Z,13.90
2018-04-16T02:39:34.778Z,13.90
2018-04-16T02:45:17.146Z,13.80
2018-04-16T02:47:49.626Z,13.40
2018-04-16T02:50:21.979Z,13.60
2018-04-16T02:52:54.364Z,13.40
2018-04-16T02:55:26.911Z,13.50
2018-04-16T02:57:59.990Z,13.50
2018-04-16T03:00:32.362Z,13.30
2018-04-16T03:03:04.762Z,13.40
2018-04-16T03:05:37.126Z,12.80
2018-04-16T03:08:10.214Z,13.00
2018-04-16T03:10:43.373Z,13.10
2018-04-16T03:13:15.641Z,12.80
2018-04-16T03:15:47.846Z,13.00
2018-04-16T03:18:20.142Z,12.80
2018-04-16T03:20:52.742Z,12.80
2018-04-16T03:23:24.958Z,12.80
2018-04-16T03:25:58.049Z,12.70
2018-04-16T03:28:31.146Z,12.80
2018-04-16T03:31:03.403Z,12.80
2018-04-16T03:33:36.358Z,13.30
2018-04-16T03:36:08.607Z,13.10
2018-04-16T03:38:40.838Z,13.20
2018-04-16T03:41:14.082Z,13.10
2018-04-16T03:43:46.423Z,13.40
2018-04-16T03:46:18.674Z,13.50
2018-04-16T03:48:51.786Z,13.50
2018-04-16T03:51:24.133Z,13.30
2018-04-16T03:53:51.206Z,13.90
2018-04-16T03:56:17.470Z,13.90
2018-04-16T03:58:43.779Z,13.50
2018-04-16T04:01:10.030Z,13.40
2018-04-16T04:03:36.305Z,13.90
2018-04-16T04:06:02.607Z,13.50
2018-04-16T04:08:28.865Z,13.30
2018-04-16T04:10:55.908Z,13.80
2018-04-16T04:13:22.200Z,13.90
2018-04-16T04:15:48.461Z,13.60
2018-04-16T04:18:15.478Z,13.90
2018-04-16T04:20:41.730Z,13.80
2018-04-16T04:23:20.965Z,13.80
2018-04-16T04:26:00.271Z,13.80
2018-04-16T04:28:38.791Z,13.80
2018-04-16T04:31:05.044Z,13.60
2018-04-16T04:33:32.081Z,13.80
2018-04-16T04:35:58.351Z,13.50
2018-04-16T04:38:25.343Z,13.90
2018-04-16T04:40:51.615Z,13.80
2018-04-16T04:43:17.927Z,13.90
2018-04-16T04:45:44.225Z,14.00
2018-04-16T04:48:10.479Z,13.40
2018-04-16T04:50:36.749Z,13.30
2018-04-16T04:53:03.117Z,13.50
2018-04-16T04:55:29.358Z,13.80
2018-04-16T04:57:55.600Z,13.90
2018-04-16T05:00:21.890Z,13.80
2018-04-16T05:02:48.158Z,13.90
2018-04-16T05:05:14.414Z,13.70
2018-04-16T05:07:41.455Z,13.90
2018-04-16T05:10:08.466Z,13.80
2018-04-16T05:12:34.741Z,13.60
2018-04-16T05:15:01.770Z,13.90
2018-04-16T05:17:28.050Z,13.90
2018-04-16T05:19:54.381Z,13.60
2018-04-16T05:22:20.674Z,13.70
2018-04-16T05:24:47.669Z,13.90
2018-04-16T05:27:14.716Z,13.60
2018-04-16T05:29:40.994Z,13.80
2018-04-16T05:32:08.079Z,13.70
2018-04-16T05:34:34.465Z,13.70
2018-04-16T05:37:00.834Z,13.30
2018-04-16T05:39:27.170Z,13.80
2018-04-16T05:41:53.463Z,13.80
2018-04-16T05:44:20.461Z,14.00
2018-04-16T05:46:46.763Z,13.80
2018-04-16T05:49:13.090Z,14.30
2018-04-16T05:51:39.342Z,14.30
2018-04-16T05:54:06.554Z,13.90
2018-04-16T05:56:32.798Z,14.30
2018-04-16T05:58:59.795Z,14.70
2018-04-16T06:01:26.074Z,14.70
2018-04-16T06:03:53.070Z,14.80
2018-04-16T06:06:19.383Z,14.70
2018-04-16T06:08:45.699Z,14.90
2018-04-16T06:11:11.964Z,14.90
2018-04-16T06:13:38.272Z,14.90
2018-04-16T06:16:05.290Z,14.80
2018-04-16T06:18:32.310Z,15.00
2018-04-16T06:20:58.569Z,15.00
2018-04-16T06:23:25.627Z,15.10
2018-04-16T06:25:51.901Z,15.60
2018-04-16T06:28:18.217Z,15.60
2018-04-16T06:30:44.534Z,16.80
2018-04-16T06:33:10.793Z,17.40
2018-04-16T06:35:37.096Z,18.10
2018-04-16T06:38:03.398Z,19.30
2018-04-16T06:40:30.374Z,17.30
2018-04-16T06:42:56.679Z,17.40
2018-04-16T06:45:22.993Z,16.50
2018-04-16T06:47:50.010Z,16.40
2018-04-16T06:50:16.292Z,16.30
2018-04-16T06:52:42.653Z,16.20
2018-04-16T06:55:08.912Z,16.40
2018-04-16T06:57:35.290Z,16.10
2018-04-16T07:00:01.685Z,16.20
2018-04-16T07:02:28.732Z,16.30
2018-04-16T07:04:55.006Z,16.20
2018-04-16T07:07:21.299Z,15.90
2018-04-16T07:09:48.324Z,16.20
2018-04-16T07:12:14.650Z,16.30
2018-04-16T07:14:40.934Z,15.70
2018-04-16T07:17:07.240Z,16.10
2018-04-16T07:19:33.520Z,16.10
2018-04-16T07:21:59.851Z,16.10
2018-04-16T07:24:26.149Z,16.30
2018-04-16T07:26:52.490Z,16.60
2018-04-16T07:29:18.797Z,16.90
2018-04-16T07:31:46.125Z,17.00
2018-04-16T07:34:12.418Z,17.20
2018-04-16T07:36:38.739Z,17.20
2018-04-16T07:39:05.037Z,17.20
2018-04-16T07:41:32.055Z,17.80
2018-04-16T07:43:58.377Z,17.40
2018-04-16T07:46:24.674Z,18.00
2018-04-16T07:48:50.961Z,17.80
2018-04-16T07:51:18.030Z,17.40
2018-04-16T07:53:45.067Z,17.20
2018-04-16T07:56:12.071Z,17.80
2018-04-16T07:58:38.381Z,17.80
2018-04-16T08:01:04.670Z,18.00
2018-04-16T08:03:30.931Z,19.80
2018-04-16T08:05:57.237Z,20.30
2018-04-16T08:08:24.287Z,22.30
2018-04-16T08:10:51.337Z,23.30
2018-04-16T08:13:18.661Z,23.30
2018-04-16T08:15:44.956Z,23.30
2018-04-16T08:18:11.258Z,23.60
2018-04-16T08:20:37.582Z,23.50
2018-04-16T08:23:03.897Z,24.00
2018-04-16T08:25:30.159Z,23.50
2018-04-16T08:27:56.514Z,22.50
2018-04-16T08:30:22.820Z,22.40
2018-04-16T08:32:49.070Z,21.10
2018-04-16T08:35:15.368Z,21.90
2018-04-16T08:37:42.369Z,20.90
2018-04-16T08:40:08.648Z,20.70
2018-04-16T08:42:34.966Z,20.40
2018-04-16T08:45:02.030Z,21.90
2018-04-16T08:47:29.048Z,22.40
2018-04-16T08:49:55.486Z,22.30
2018-04-16T08:52:21.795Z,23.00
2018-04-16T08:54:48.086Z,24.30
2018-04-16T08:57:14.389Z,24.60
2018-04-16T08:59:41.634Z,24.50
2018-04-16T09:02:07.914Z,24.80
2018-04-16T09:04:34.241Z,23.90
2018-04-16T09:07:00.515Z,25.20
2018-04-16T09:09:26.802Z,25.40
2018-04-16T09:11:53.090Z,25.70
2018-04-16T09:14:20.094Z,26.90
2018-04-16T09:16:46.350Z,26.80
2018-04-16T09:19:12.638Z,27.20
2018-04-16T09:21:38.896Z,26.50
2018-04-16T09:24:05.172Z,26.10
2018-04-16T09:26:32.201Z,24.60
2018-04-16T09:29:00.293Z,23.80
2018-04-16T09:31:26.552Z,23.20
2018-04-16T09:33:52.863Z,23.00
2018-04-16T09:36:19.146Z,22.10
2018-04-16T09:38:45.443Z,21.70
2018-04-16T09:41:11.754Z,21.10
2018-04-16T09:43:38.030Z,22.40
2018-04-16T09:46:04.326Z,24.40
2018-04-16T09:48:30.621Z,24.80
2018-04-16T09:50:57.640Z,25.90
2018-04-16T09:53:23.915Z,25.70
2018-04-16T09:55:50.254Z,24.80
2018-04-16T09:58:16.559Z,24.80
2018-04-16T10:00:53.592Z,25.40
2018-04-16T10:03:22.928Z,25.30
2018-04-16T10:05:49.306Z,25.20
2018-04-16T10:08:16.383Z,24.40
2018-04-16T10:10:42.798Z,24.20
2018-04-16T10:13:09.088Z,23.60
2018-04-16T10:15:35.424Z,23.70
2018-04-16T10:18:02.537Z,23.40
2018-04-16T10:20:28.855Z,23.30
2018-04-16T10:22:55.113Z,24.30
2018-04-16T10:25:21.400Z,25.90
2018-04-16T10:27:47.654Z,26.60
2018-04-16T10:30:14.005Z,26.00
2018-04-16T10:32:41.017Z,26.70
2018-04-16T10:35:07.367Z,26.60
2018-04-16T10:37:33.692Z,26.50
2018-04-16T10:39:59.963Z,27.80
2018-04-16T10:42:26.984Z,26.30
2018-04-16T10:44:53.302Z,25.90
2018-04-16T10:47:19.564Z,24.70
2018-04-16T10:49:46.619Z,22.60
2018-04-16T10:52:13.674Z,22.20
2018-04-16T10:54:40.710Z,21.90
2018-04-16T10:57:07.754Z,23.50
2018-04-16T10:59:34.810Z,24.80
2018-04-16T11:02:01.124Z,24.50
2018-04-16T11:04:27.474Z,25.70
2018-04-16T11:06:54.526Z,25.20
2018-04-16T11:09:20.811Z,25.60
2018-04-16T11:11:47.834Z,25.40
2018-04-16T11:14:14.158Z,26.30
2018-04-16T11:16:40.451Z,24.90
2018-04-16T11:19:07.520Z,24.50
2018-04-16T11:21:34.533Z,23.70
2018-04-16T11:24:00.808Z,23.50
2018-04-16T11:26:27.117Z,24.50
2018-04-16T11:28:53.462Z,24.60
2018-04-16T11:31:19.766Z,25.70
2018-04-16T11:33:46.801Z,27.30
2018-04-16T11:36:13.134Z,26.90
2018-04-16T11:38:39.402Z,26.50
2018-04-16T11:41:05.707Z,26.40
2018-04-16T11:43:32.004Z,26.30
2018-04-16T11:45:58.288Z,26.50
2018-04-16T11:48:24.598Z,27.20
2018-04-16T11:50:51.648Z,27.60
2018-04-16T11:53:18.689Z,26.80
2018-04-16T11:55:45.754Z,26.60
2018-04-16T11:58:12.069Z,26.40
2018-04-16T12:00:39.082Z,25.90
2018-04-16T12:03:05.358Z,25.70
2018-04-16T12:05:31.643Z,25.70
2018-04-16T12:07:57.914Z,25.70
2018-04-16T12:10:24.973Z,23.60
2018-04-16T12:12:51.294Z,23.30
2018-04-16T12:15:18.313Z,22.90
2018-04-16T12:17:44.602Z,23.00
2018-04-16T12:20:11.311Z,23.00
2018-04-16T12:22:37.633Z,22.70
2018-04-16T12:25:04.654Z,21.00
2018-04-16T12:27:30.966Z,20.90
2018-04-16T12:29:57.237Z,22.00
2018-04-16T12:32:23.506Z,23.70
2018-04-16T12:34:49.807Z,23.80
2018-04-16T12:37:16.112Z,23.40
2018-04-16T12:39:42.410Z,23.50
2018-04-16T12:42:08.726Z,22.90
2018-04-16T12:44:35.034Z,22.70
2018-04-16T12:47:02.038Z,22.40
2018-04-16T12:49:28.313Z,22.30
2018-04-16T12:51:54.606Z,22.80
2018-04-16T12:54:20.919Z,23.10
2018-04-16T12:56:47.214Z,22.70
2018-04-16T12:59:13.537Z,22.70
2018-04-16T13:01:39.821Z,23.00
2018-04-16T13:04:06.127Z,23.00
2018-04-16T13:06:32.409Z,22.70
2018-04-16T13:08:59.494Z,23.50
2018-04-16T13:11:25.802Z,23.60
2018-04-16T13:13:52.819Z,22.70
2018-04-16T13:16:19.115Z,22.90
2018-04-16T13:18:45.426Z,22.30
2018-04-16T13:21:11.673Z,23.40
2018-04-16T13:23:37.976Z,23.60
2018-04-16T13:26:04.328Z,22.70
2018-04-16T13:28:30.589Z,22.00
2018-04-16T13:30:56.851Z,22.20
2018-04-16T13:33:23.189Z,21.90
2018-04-16T13:35:50.222Z,21.20
2018-04-16T13:38:16.505Z,21.00
2018-04-16T13:40:42.830Z,21.20
2018-04-16T13:43:09.094Z,21.00
2018-04-16T13:45:35.377Z,21.10
2018-04-16T13:48:01.661Z,20.70
2018-04-16T13:50:28.697Z,20.60
2018-04-16T13:52:54.993Z,20.30
2018-04-16T13:55:21.305Z,20.60
2018-04-16T13:57:47.565Z,21.00
2018-04-16T14:00:13.872Z,21.50
2018-04-16T14:02:40.142Z,21.40
2018-04-16T14:05:06.467Z,22.40
2018-04-16T14:07:32.754Z,23.00
2018-04-16T14:09:59.043Z,23.70
2018-04-16T14:12:25.370Z,23.00
2018-04-16T14:14:51.649Z,22.90
2018-04-16T14:17:17.933Z,22.50
2018-04-16T14:19:45.119Z,21.90
2018-04-16T14:22:11.418Z,22.20
2018-04-16T14:24:37.686Z,22.20
2018-04-16T14:27:03.961Z,22.50
2018-04-16T14:29:30.308Z,23.40
2018-04-16T14:31:56.547Z,23.50
2018-04-16T14:34:22.830Z,24.10
2018-04-16T14:36:49.107Z,24.60
2018-04-16T14:39:16.171Z,24.40
2018-04-16T14:41:43.218Z,24.90
2018-04-16T14:44:10.295Z,25.70
2018-04-16T14:46:36.610Z,25.40
2018-04-16T14:49:02.886Z,25.30
2018-04-16T14:51:29.169Z,25.60
2018-04-16T14:53:56.190Z,26.50
2018-04-16T14:56:22.509Z,26.60
2018-04-16T14:58:48.851Z,25.40
2018-04-16T15:01:15.121Z,24.70
2018-04-16T15:03:41.422Z,24.60
2018-04-16T15:06:08.438Z,25.90
2018-04-16T15:08:34.697Z,25.40
2018-04-16T15:11:01.733Z,25.10
2018-04-16T15:13:28.776Z,24.30
2018-04-16T15:15:55.130Z,24.50
2018-04-16T15:18:22.202Z,23.50
2018-04-16T15:20:49.200Z,23.70
2018-04-16T15:23:15.477Z,23.50
2018-04-16T15:25:41.751Z,23.70
2018-04-16T15:28:08.009Z,23.50
2018-04-16T15:30:35.045Z,24.50
2018-04-16T15:33:02.135Z,25.40
2018-04-16T15:35:28.406Z,25.50
2018-04-16T15:37:54.666Z,25.60
2018-04-16T15:40:21.746Z,24.60
2018-04-16T15:42:48.012Z,24.50
2018-04-16T15:45:14.346Z,25.00
2018-04-16T15:47:40.632Z,24.90
2018-04-16T15:50:06.918Z,24.80
2018-04-16T15:52:33.191Z,24.40
2018-04-16T15:54:59.489Z,23.80
2018-04-16T15:57:26.550Z,24.30
2018-04-16T15:59:52.818Z,24.40
2018-04-16T16:02:19.128Z,25.00
2018-04-16T16:04:45.411Z,25.40
2018-04-16T16:07:11.682Z,25.20
2018-04-16T16:09:37.967Z,24.90
2018-04-16T16:12:04.261Z,24.70
2018-04-16T16:14:30.532Z,23.90
2018-04-16T16:16:56.807Z,23.10
2018-04-16T16:19:23.193Z,22.80
2018-04-16T16:21:49.458Z,22.70
2018-04-16T16:24:15.768Z,22.10
2018-04-16T16:26:42.147Z,21.70
2018-04-16T16:29:08.462Z,21.90
2018-04-16T16:31:34.747Z,21.80
2018-04-16T16:34:01.004Z,21.70
2018-04-16T16:36:27.295Z,21.30
2018-04-16T16:38:53.602Z,21.70
2018-04-16T16:41:19.919Z,21.60
2018-04-16T16:43:46.225Z,21.70
2018-04-16T16:46:12.553Z,21.70
2018-04-16T16:48:39.576Z,21.40
2018-04-16T16:51:05.842Z,21.20
2018-04-16T16:53:32.133Z,20.80
2018-04-16T16:55:58.436Z,20.70
2018-04-16T16:58:24.710Z,20.60
2018-04-16T17:00:51.753Z,20.60
2018-04-16T17:03:18.044Z,20.80
2018-04-16T17:05:44.315Z,20.40
2018-04-16T17:08:11.367Z,20.30
2018-04-16T17:10:38.381Z,19.90
2018-04-16T17:13:04.661Z,19.80
2018-04-16T17:15:30.946Z,19.90
2018-04-16T17:17:57.249Z,19.80
2018-04-16T17:20:23.574Z,19.60
2018-04-16T17:22:49.822Z,19.60
2018-04-16T17:25:16.090Z,19.50
2018-04-16T17:27:42.466Z,19.30
2018-04-16T17:30:08.790Z,19.20
2018-04-16T17:32:35.724Z,19.60
2018-04-16T17:35:02.051Z,19.40
2018-04-16T17:37:28.346Z,19.70
2018-04-16T17:39:54.593Z,19.50
2018-04-16T17:42:21.702Z,19.40
2018-04-16T17:44:47.966Z,19.40
2018-04-16T17:47:15.027Z,19.50
2018-04-16T17:49:41.305Z,19.60
2018-04-16T17:52:07.591Z,19.40
2018-04-16T17:54:33.878Z,19.20
2018-04-16T17:57:00.158Z,19.40
2018-04-16T17:59:26.481Z,19.30
2018-04-16T18:01:53.525Z,19.40
2018-04-16T18:04:20.518Z,19.30
2018-04-16T18:06:46.802Z,19.30
2018-04-16T18:09:13.825Z,19.10
2018-04-16T18:11:40.846Z,19.10
2018-04-16T18:14:07.159Z,19.00
2018-04-16T18:16:33.428Z,19.10
2018-04-16T18:18:59.718Z,18.90
2018-04-16T18:21:26.056Z,18.80
2018-04-16T18:23:52.350Z,18.50
2018-04-16T18:26:18.612Z,18.50
2018-04-16T18:28:45.209Z,18.60
2018-04-16T18:31:11.526Z,18.60
2018-04-16T18:33:38.545Z,18.50
2018-04-16T18:36:04.852Z,18.10
2018-04-16T18:38:31.898Z,18.10
2018-04-16T18:40:58.163Z,18.10
2018-04-16T18:43:24.407Z,18.40
2018-04-16T18:45:50.732Z,18.20
2018-04-16T18:48:17.042Z,18.10
2018-04-16T18:50:44.221Z,18.00
2018-04-16T18:53:10.478Z,18.00
2018-04-16T18:55:36.791Z,18.00
2018-04-16T18:58:03.907Z,18.00
2018-04-16T19:00:30.181Z,17.70
2018-04-16T19:02:56.474Z,18.00
2018-04-16T19:05:22.754Z,17.90
2018-04-16T19:07:49.039Z,17.80
2018-04-16T19:10:15.368Z,17.90
2018-04-16T19:12:41.626Z,18.00
2018-04-16T19:15:09.151Z,17.80
2018-04-16T19:17:41.459Z,17.90
2018-04-16T19:20:07.782Z,17.80
2018-04-16T19:22:34.987Z,17.20
2018-04-16T19:25:01.416Z,17.70
2018-04-16T19:27:33.812Z,17.80
2018-04-16T19:30:00.131Z,17.50
2018-04-16T19:32:26.414Z,17.40
2018-04-16T19:34:58.919Z,17.30
2018-04-16T19:37:25.174Z,17.10
2018-04-16T19:39:51.445Z,17.30
2018-04-16T19:42:24.473Z,17.10
2018-04-16T19:44:50.789Z,17.10
2018-04-16T19:47:17.052Z,17.20
2018-04-16T19:49:49.410Z,17.20
2018-04-16T19:52:15.722Z,17.10
2018-04-16T19:54:42.734Z,16.80
2018-04-16T19:57:15.950Z,17.00
2018-04-16T19:59:42.210Z,16.90
2018-04-16T20:02:14.662Z,16.40
2018-04-16T20:04:41.006Z,16.60
2018-04-16T20:07:07.261Z,16.60
2018-04-16T20:09:33.558Z,16.50
2018-04-16T20:11:59.838Z,16.30
2018-04-16T20:14:26.123Z,16.40
2018-04-16T20:16:52.396Z,16.10
2018-04-16T20:19:18.690Z,16.30
2018-04-16T20:21:44.954Z,16.30
2018-04-16T20:24:11.230Z,15.90
2018-04-16T20:26:37.495Z,15.90
2018-04-16T20:29:03.831Z,16.20
2018-04-16T20:31:30.246Z,15.90
2018-04-16T20:33:56.522Z,15.90
2018-04-16T20:36:23.555Z,15.90
2018-04-16T20:38:49.873Z,15.80
2018-04-16T20:41:16.171Z,15.70
2018-04-16T20:43:42.425Z,15.70
2018-04-16T20:46:08.774Z,15.60
2018-04-16T20:48:35.115Z,15.70
2018-04-16T20:51:02.140Z,15.50
2018-04-16T20:53:28.623Z,15.70
2018-04-16T20:55:55.699Z,15.60
2018-04-16T20:58:22.046Z,15.30
2018-04-16T21:00:48.389Z,15.40
2018-04-16T21:03:14.890Z,15.40
2018-04-16T21:05:41.171Z,15.10
2018-04-16T21:08:07.438Z,15.30
2018-04-16T21:10:33.706Z,15.30
2018-04-16T21:13:00.010Z,15.20
2018-04-16T21:15:26.278Z,15.30
2018-04-16T21:17:52.566Z,15.20
2018-04-16T21:20:18.916Z,15.30
2018-04-16T21:22:45.354Z,15.10
2018-04-16T21:25:11.729Z,14.70
2018-04-16T21:27:38.786Z,14.60
2018-04-16T21:30:05.782Z,14.50
2018-04-16T21:32:32.038Z,15.00
2018-04-16T21:34:58.453Z,14.70
2018-04-16T21:37:24.714Z,14.50
2018-04-16T21:39:51.717Z,14.40
2018-04-16T21:42:17.962Z,14.60
2018-04-16T21:44:44.230Z,14.50
2018-04-16T21:47:11.291Z,14.50
2018-04-16T21:49:37.566Z,14.70
2018-04-16T21:52:03.835Z,14.60
2018-04-16T21:54:30.842Z,14.40
2018-04-16T21:56:57.232Z,14.40
2018-04-16T21:59:23.422Z,14.40
2018-04-16T22:01:49.723Z,14.70
2018-04-16T22:04:16.915Z,14.50
2018-04-16T22:06:43.177Z,14.50
2018-04-16T22:09:09.454Z,14.50
2018-04-16T22:11:36.489Z,14.30
2018-04-16T22:14:02.930Z,14.30
2018-04-16T22:16:29.195Z,14.00
2018-04-16T22:18:55.501Z,14.00
2018-04-16T22:21:21.762Z,14.50
2018-04-16T22:23:48.038Z,14.10
2018-04-16T22:26:14.318Z,14.10
2018-04-16T22:28:40.594Z,13.90
2018-04-16T22:31:06.862Z,14.00
2018-04-16T22:33:33.234Z,13.90
2018-04-16T22:36:00.219Z,13.80
2018-04-16T22:38:26.473Z,13.80
2018-04-16T22:40:53.449Z,14.00
2018-04-16T22:43:19.733Z,14.10
2018-04-16T22:45:46.017Z,14.00
2018-04-16T22:48:12.301Z,13.90
2018-04-16T22:50:39.338Z,13.80
2018-04-16T22:53:05.625Z,13.50
2018-04-16T22:55:31.898Z,13.70
2018-04-16T22:57:58.184Z,13.40
2018-04-16T23:00:24.484Z,13.60
2018-04-16T23:02:50.742Z,13.70
2018-04-16T23:05:17.012Z,13.50
2018-04-16T23:07:43.265Z,13.40
2018-04-16T23:10:10.277Z,13.50
2018-04-16T23:12:36.547Z,13.50
2018-04-16T23:15:03.568Z,13.10
2018-04-16T23:17:29.857Z,13.40
2018-04-16T23:19:56.137Z,13.20
2018-04-16T23:22:22.427Z,13.40
2018-04-16T23:24:48.693Z,13.20
2018-04-16T23:27:15.792Z,13.00
2018-04-16T23:29:42.002Z,13.00
2018-04-16T23:32:08.277Z,13.00
2018-04-16T23:34:34.553Z,13.00
2018-04-16T23:37:00.816Z,13.10
2018-04-16T23:39:27.108Z,13.10
2018-04-16T23:41:53.363Z,13.00
2018-04-16T23:44:19.658Z,12.90
2018-04-16T23:46:46.677Z,13.10
2018-04-16T23:49:12.914Z,13.00
2018-04-16T23:51:39.182Z,13.00
2018-04-16T23:54:05.449Z,12.90
2018-04-16T23:56:31.738Z,13.00
2018-04-16T23:58:58.021Z,12.80
